OICS  Sanandaj Airport

Add Bookmark

Iran

Status IATA
Operational SDG
Latitude Longitude
35° 14' 45" N 47° 0' 33" E
35.245899 47.009201
Local (DST + 5) UTC (GMT + 4)
Jan 25, 2015 03:44 Jan 25, 2015 12:14
Sunrise-Sunset Local UTC
Begin Civil Twilight 06:57 03:27
Sunrise 07:24 03:54
Sunset 05:44 14:14
End Civil Twilight 06:11 14:41

Current Weather

METAR Observed VFR
OICS 251030Z 18004KT CAVOK 09/M06 Q1024 Sun, Jan 25, 2015 @ 10:30 UTC
(1 Hour, 44 Minutes ago)
Visual Flight Rules
Wind Visibility Clouds Conditions
180° at 4 knots (7 kph) 10 km or more
  • Clear skies
  • No significant weather
Temperatures Readings Precipitation
Current Temp 9°C (48°F)
Dewpoint -6°C (21°F)
Humidity 34%
Altimeter 30.24"Hg
Sea Level Pressure 1024mb
Field Elevation 4504.59'
None Recorded

Additional weather within a 185.2km radius of OICS

Map ICAO Location
OICC 100.9km S (172°)
OIHH 146.5km E (106°)
ORSU 157.2km W (283°)

24 Hour Weather History

Loading
-

24 Hour Weather Graphs

Loading
-

CheckWX.com is intended as a tool to help pilots better visualize weather data. It is not intended as a substitute for an official weather briefing obtained from a Flight Service Station. CheckWX.com does not meet the FAA requirements for an official pre-flight weather briefing. Therefore, it's important that pilots still call and obtain an official FSS pre-flight weather briefing.